createdAt,value
2018-01-26T00:00:50.945Z,96158.30
2018-01-26T00:03:18.603Z,96156.00
2018-01-26T00:05:46.218Z,96153.38
2018-01-26T00:08:13.822Z,96158.36
2018-01-26T00:10:41.386Z,96152.75
2018-01-26T00:13:09.345Z,96151.28
2018-01-26T00:15:36.964Z,96148.31
2018-01-26T00:18:04.717Z,96124.95
2018-01-26T00:20:32.337Z,96146.38
2018-01-26T00:22:59.969Z,96151.72
2018-01-26T00:25:27.536Z,96146.69
2018-01-26T00:27:55.132Z,96150.21
2018-01-26T00:30:22.730Z,96150.59
2018-01-26T00:32:50.280Z,96155.12
2018-01-26T00:35:17.872Z,96155.20
2018-01-26T00:37:45.503Z,96150.27
2018-01-26T00:40:13.095Z,96146.23
2018-01-26T00:42:40.670Z,96148.87
2018-01-26T00:45:08.666Z,96146.41
2018-01-26T00:47:36.371Z,96147.12
2018-01-26T00:50:03.972Z,96152.61
2018-01-26T00:52:31.549Z,96155.70
2018-01-26T00:54:59.122Z,96157.23
2018-01-26T00:57:26.711Z,96154.19
2018-01-26T00:59:54.278Z,96162.14
2018-01-26T01:02:21.825Z,96167.99
2018-01-26T01:04:49.424Z,96168.28
2018-01-26T01:07:19.780Z,96168.34
2018-01-26T01:09:47.370Z,96170.87
2018-01-26T01:12:14.958Z,96174.39
2018-01-26T01:14:42.531Z,96173.38
2018-01-26T01:17:12.041Z,96174.30
2018-01-26T01:19:39.681Z,96173.17
2018-01-26T01:22:07.252Z,96176.47
2018-01-26T01:24:34.810Z,96179.83
2018-01-26T01:27:02.653Z,96174.97
2018-01-26T01:29:30.237Z,96172.84
2018-01-26T01:31:57.903Z,96173.40
2018-01-26T01:34:25.831Z,96172.57
2018-01-26T01:36:53.390Z,96167.95
2018-01-26T01:39:20.999Z,96164.21
2018-01-26T01:41:48.632Z,96152.77
2018-01-26T01:44:16.173Z,96153.19
2018-01-26T01:46:43.744Z,96147.44
2018-01-26T01:49:19.313Z,96146.36
2018-01-26T01:51:47.071Z,96145.55
2018-01-26T01:54:14.643Z,96143.22
2018-01-26T01:56:42.292Z,96143.53
2018-01-26T01:59:09.836Z,96147.05
2018-01-26T02:01:37.435Z,96148.50
2018-01-26T02:04:05.071Z,96153.44
2018-01-26T02:06:32.713Z,96147.79
2018-01-26T02:09:00.483Z,96152.53
2018-01-26T02:11:28.352Z,96158.81
2018-01-26T02:13:55.923Z,96157.75
2018-01-26T02:16:23.703Z,96158.23
2018-01-26T02:18:51.334Z,96149.97
2018-01-26T02:21:18.939Z,96147.77
2018-01-26T02:23:46.519Z,96149.43
2018-01-26T02:26:14.185Z,96147.25
2018-01-26T02:28:41.758Z,96157.36
2018-01-26T02:31:09.349Z,96156.48
2018-01-26T02:33:36.987Z,96163.78
2018-01-26T02:36:04.809Z,96159.50
2018-01-26T02:38:32.380Z,96161.78
2018-01-26T02:41:00.013Z,96157.34
2018-01-26T02:43:28.199Z,96151.63
2018-01-26T02:45:55.760Z,96153.09
2018-01-26T02:48:23.599Z,96147.32
2018-01-26T02:50:51.930Z,96150.53
2018-01-26T02:53:20.311Z,96160.48
2018-01-26T02:55:48.504Z,96167.91
2018-01-26T02:58:16.086Z,96161.17
2018-01-26T03:00:43.692Z,96164.20
2018-01-26T03:03:13.735Z,96164.28
2018-01-26T03:05:41.393Z,96160.28
2018-01-26T03:08:10.126Z,96155.23
2018-01-26T03:10:37.732Z,96148.65
2018-01-26T03:13:07.129Z,96154.38
2018-01-26T03:15:34.756Z,96154.66
2018-01-26T03:18:04.652Z,96152.95
2018-01-26T03:20:32.232Z,96156.73
2018-01-26T03:23:00.198Z,96160.22
2018-01-26T03:25:28.141Z,96168.27
2018-01-26T03:27:55.766Z,96165.11
2018-01-26T03:30:23.388Z,96167.84
2018-01-26T03:32:53.194Z,96163.92
2018-01-26T03:35:20.958Z,96162.28
2018-01-26T03:37:48.636Z,96165.80
2018-01-26T03:40:18.439Z,96160.78
2018-01-26T03:42:48.106Z,96164.63
2018-01-26T03:45:16.051Z,96168.59
2018-01-26T03:47:43.739Z,96179.23
2018-01-26T03:50:11.329Z,96189.72
2018-01-26T03:52:40.693Z,96185.75
2018-01-26T03:55:08.411Z,96189.24
2018-01-26T03:57:36.799Z,96185.44
2018-01-26T04:00:06.092Z,96192.44
2018-01-26T04:02:33.819Z,96196.49
2018-01-26T04:05:01.469Z,96186.84
2018-01-26T04:07:29.243Z,96186.17
2018-01-26T04:09:56.828Z,96187.20
2018-01-26T04:12:24.521Z,96181.23
2018-01-26T04:14:52.107Z,96173.52
2018-01-26T04:17:19.793Z,96173.39
2018-01-26T04:19:47.545Z,96173.30
2018-01-26T04:22:15.214Z,96175.28
2018-01-26T04:24:42.844Z,96176.11
2018-01-26T04:27:11.069Z,96180.20
2018-01-26T04:29:38.713Z,96179.25
2018-01-26T04:32:06.287Z,96189.76
2018-01-26T04:34:33.840Z,96188.62
2018-01-26T04:37:01.425Z,96187.27
2018-01-26T04:39:29.032Z,96185.95
2018-01-26T04:41:56.617Z,96188.98
2018-01-26T04:44:24.173Z,96189.63
2018-01-26T04:46:51.756Z,96191.39
2018-01-26T04:49:19.359Z,96192.63
2018-01-26T04:51:46.955Z,96191.44
2018-01-26T04:54:14.701Z,96194.66
2018-01-26T04:56:42.271Z,96193.59
2018-01-26T04:59:09.946Z,96186.38
2018-01-26T05:01:38.421Z,96180.61
2018-01-26T05:04:06.368Z,96179.62
2018-01-26T05:06:34.668Z,96179.55
2018-01-26T05:09:02.432Z,96177.90
2018-01-26T05:11:31.296Z,96184.16
2018-01-26T05:13:59.268Z,96186.14
2018-01-26T05:16:28.073Z,96187.58
2018-01-26T05:18:56.125Z,96194.25
2018-01-26T05:21:23.781Z,96198.22
2018-01-26T05:23:51.682Z,96194.67
2018-01-26T05:26:19.534Z,96203.24
2018-01-26T05:28:47.440Z,96203.59
2018-01-26T05:31:15.036Z,96202.08
2018-01-26T05:33:42.645Z,96200.39
2018-01-26T05:36:10.280Z,96201.13
2018-01-26T05:38:37.879Z,96204.38
2018-01-26T05:41:05.490Z,96195.53
2018-01-26T05:43:33.140Z,96201.34
2018-01-26T05:46:00.778Z,96202.61
2018-01-26T05:48:28.327Z,96203.97
2018-01-26T05:50:55.936Z,96195.33
2018-01-26T05:53:23.500Z,96196.16
2018-01-26T05:55:51.045Z,96190.69
2018-01-26T05:58:19.548Z,96197.56
2018-01-26T06:00:47.255Z,96193.14
2018-01-26T06:03:14.858Z,96193.50
2018-01-26T06:05:42.427Z,96188.13
2018-01-26T06:08:10.233Z,96189.95
2018-01-26T06:10:37.834Z,96192.13
2018-01-26T06:13:05.637Z,96195.17
2018-01-26T06:15:33.235Z,96201.63
2018-01-26T06:18:00.859Z,96201.62
2018-01-26T06:20:28.836Z,96202.34
2018-01-26T06:22:56.417Z,96199.58
2018-01-26T06:25:24.294Z,96191.92
2018-01-26T06:27:51.910Z,96184.26
2018-01-26T06:30:19.552Z,96189.75
2018-01-26T06:32:47.156Z,96190.66
2018-01-26T06:35:14.795Z,96195.78
2018-01-26T06:37:42.343Z,96197.25
2018-01-26T06:40:09.913Z,96193.91
2018-01-26T06:42:37.503Z,96194.61
2018-01-26T06:45:05.642Z,96177.64
2018-01-26T06:47:33.517Z,96194.88
2018-01-26T06:50:01.069Z,96194.66
2018-01-26T06:52:28.643Z,96193.68
2018-01-26T06:54:56.256Z,96193.96
2018-01-26T06:57:23.805Z,96189.05
2018-01-26T06:59:51.377Z,96187.94
2018-01-26T07:02:20.347Z,96180.90
2018-01-26T07:04:48.294Z,96173.33
2018-01-26T07:07:15.850Z,96172.82
2018-01-26T07:09:43.421Z,96177.46
2018-01-26T07:12:10.978Z,96181.99
2018-01-26T07:14:38.613Z,96187.55
2018-01-26T07:17:06.323Z,96200.35
2018-01-26T07:19:33.930Z,96195.54
2018-01-26T07:22:01.517Z,96196.66
2018-01-26T07:24:29.081Z,96200.52
2018-01-26T07:26:56.642Z,96213.22
2018-01-26T07:29:24.243Z,96214.88
2018-01-26T07:31:51.841Z,96214.65
2018-01-26T07:34:19.401Z,96215.85
2018-01-26T07:36:46.955Z,96222.02
2018-01-26T07:39:14.614Z,96227.67
2018-01-26T07:41:44.025Z,96239.53
2018-01-26T07:44:11.686Z,96241.52
2018-01-26T07:46:39.320Z,96243.60
2018-01-26T07:49:07.020Z,96242.70
2018-01-26T07:51:34.862Z,96240.84
2018-01-26T07:54:05.108Z,96247.28
2018-01-26T07:56:32.899Z,96242.99
2018-01-26T07:59:00.471Z,96238.96
2018-01-26T08:01:28.052Z,96241.69
2018-01-26T08:03:55.607Z,96240.23
2018-01-26T08:06:23.608Z,96234.86
2018-01-26T08:08:51.480Z,96231.89
2018-01-26T08:11:19.085Z,96236.16
2018-01-26T08:13:46.654Z,96235.75
2018-01-26T08:16:14.256Z,96229.08
2018-01-26T08:18:41.827Z,96232.08
2018-01-26T08:21:09.801Z,96229.66
2018-01-26T08:23:37.563Z,96227.83
2018-01-26T08:26:05.120Z,96228.06
2018-01-26T08:28:32.676Z,96226.19
2018-01-26T08:31:00.261Z,96223.89
2018-01-26T08:33:27.874Z,96222.44
2018-01-26T08:35:55.550Z,96226.39
2018-01-26T08:38:24.262Z,96226.47
2018-01-26T08:40:51.797Z,96226.13
2018-01-26T08:43:19.374Z,96227.13
2018-01-26T08:45:47.011Z,96230.42
2018-01-26T08:48:14.657Z,96230.20
2018-01-26T08:50:42.255Z,96233.66
2018-01-26T08:53:09.878Z,96227.96
2018-01-26T08:55:37.892Z,96238.97
2018-01-26T08:58:05.444Z,96231.83
2018-01-26T09:00:33.043Z,96241.59
2018-01-26T09:03:00.614Z,96233.23
2018-01-26T09:05:28.212Z,96233.73
2018-01-26T09:07:55.799Z,96230.89
2018-01-26T09:10:23.372Z,96231.41
2018-01-26T09:12:50.963Z,96232.38
2018-01-26T09:15:18.772Z,96233.05
2018-01-26T09:17:46.317Z,96227.16
2018-01-26T09:20:13.974Z,96233.13
2018-01-26T09:22:41.562Z,96233.24
2018-01-26T09:25:09.467Z,96230.03
2018-01-26T09:27:37.033Z,96230.59
2018-01-26T09:30:04.676Z,96231.61
2018-01-26T09:32:32.253Z,96232.90
2018-01-26T09:34:59.838Z,96227.14
2018-01-26T09:37:27.431Z,96229.78
2018-01-26T09:39:54.985Z,96222.23
2018-01-26T09:42:23.231Z,96222.15
2018-01-26T09:44:50.815Z,96223.77
2018-01-26T09:47:18.395Z,96229.55
2018-01-26T09:49:45.958Z,96230.34
2018-01-26T09:52:13.574Z,96233.83
2018-01-26T09:54:41.120Z,96231.09
2018-01-26T09:57:08.788Z,96230.42
2018-01-26T09:59:36.345Z,96224.54
2018-01-26T10:02:03.897Z,96236.45
2018-01-26T10:04:31.474Z,96230.92
2018-01-26T10:06:59.051Z,96228.63
2018-01-26T10:09:26.591Z,96224.22
2018-01-26T10:11:54.182Z,96226.98
2018-01-26T10:14:21.796Z,96229.11
2018-01-26T10:16:49.348Z,96230.98
2018-01-26T10:19:16.914Z,96224.58
2018-01-26T10:21:44.501Z,96225.98
2018-01-26T10:24:12.037Z,96218.45
2018-01-26T10:26:39.657Z,96225.95
2018-01-26T10:29:07.393Z,96225.48
2018-01-26T10:31:34.965Z,96223.15
2018-01-26T10:34:02.686Z,96222.36
2018-01-26T10:36:30.244Z,96220.91
2018-01-26T10:38:57.834Z,96220.09
2018-01-26T10:44:16.177Z,96218.79
2018-01-26T10:46:43.717Z,96214.39
2018-01-26T10:49:11.837Z,96215.81
2018-01-26T10:51:39.453Z,96217.87
2018-01-26T10:54:07.016Z,96214.64
2018-01-26T10:56:34.564Z,96213.34
2018-01-26T10:59:02.141Z,96210.86
2018-01-26T11:01:29.712Z,96211.55
2018-01-26T11:03:57.698Z,96206.58
2018-01-26T11:06:26.195Z,96209.77
2018-01-26T11:08:57.535Z,96201.89
2018-01-26T11:11:25.145Z,96201.95
2018-01-26T11:13:52.864Z,96196.84
2018-01-26T11:16:20.501Z,96191.95
2018-01-26T11:18:48.061Z,96193.23
2018-01-26T11:21:16.420Z,96187.77
2018-01-26T11:23:44.014Z,96188.68
2018-01-26T11:26:11.595Z,96194.27
2018-01-26T11:28:39.220Z,96194.81
2018-01-26T11:31:06.906Z,96206.84
2018-01-26T11:33:34.473Z,96209.70
2018-01-26T11:36:03.921Z,96206.81
2018-01-26T11:38:31.502Z,96202.19
2018-01-26T11:40:59.057Z,96207.47
2018-01-26T11:43:26.711Z,96200.25
2018-01-26T11:45:54.572Z,96197.23
2018-01-26T11:48:22.130Z,96201.47
2018-01-26T11:50:49.697Z,96189.79
2018-01-26T11:53:17.292Z,96187.88
2018-01-26T11:55:44.856Z,96179.05
2018-01-26T11:58:12.434Z,96182.86
2018-01-26T12:00:40.947Z,96186.16
2018-01-26T12:03:09.630Z,96184.81
2018-01-26T12:05:37.202Z,96180.91
2018-01-26T12:08:04.796Z,96179.93
2018-01-26T12:10:32.377Z,96182.70
2018-01-26T12:12:59.964Z,96178.55
2018-01-26T12:15:27.809Z,96173.45
2018-01-26T12:17:55.372Z,96180.49
2018-01-26T12:20:22.946Z,96174.49
2018-01-26T12:22:50.588Z,96178.66
2018-01-26T12:25:18.180Z,96172.48
2018-01-26T12:27:45.779Z,96173.09
2018-01-26T12:30:13.440Z,96171.02
2018-01-26T12:32:41.043Z,96172.72
2018-01-26T12:35:08.712Z,96182.53
2018-01-26T12:37:36.985Z,96175.39
2018-01-26T12:40:04.583Z,96172.74
2018-01-26T12:42:32.116Z,96174.86
2018-01-26T12:44:59.698Z,96177.44
2018-01-26T12:47:27.498Z,96173.38
2018-01-26T12:49:55.091Z,96175.06
2018-01-26T12:52:23.493Z,96169.14
2018-01-26T12:54:51.048Z,96170.95
2018-01-26T12:57:18.698Z,96170.20
2018-01-26T12:59:46.262Z,96160.70
2018-01-26T13:02:14.020Z,96158.53
2018-01-26T13:04:41.620Z,96160.39
2018-01-26T13:07:09.901Z,96152.77
2018-01-26T13:09:37.469Z,96157.53
2018-01-26T13:12:05.298Z,96151.77
2018-01-26T13:14:32.855Z,96155.75
2018-01-26T13:17:00.431Z,96160.87
2018-01-26T13:19:28.042Z,96157.11
2018-01-26T13:21:55.642Z,96159.83
2018-01-26T13:24:23.260Z,96160.93
2018-01-26T13:26:50.860Z,96169.20
2018-01-26T13:29:19.212Z,96171.31
2018-01-26T13:31:46.893Z,96172.09
2018-01-26T13:34:15.085Z,96169.63
2018-01-26T13:36:42.662Z,96170.72
2018-01-26T13:39:10.965Z,96174.56
2018-01-26T13:41:38.590Z,96171.33
2018-01-26T13:44:06.136Z,96172.11
2018-01-26T13:46:33.778Z,96175.50
2018-01-26T13:49:01.547Z,96174.89
2018-01-26T13:51:29.117Z,96182.93
2018-01-26T13:53:56.780Z,96190.30
2018-01-26T13:56:25.144Z,96187.89
2018-01-26T13:58:52.715Z,96188.34
2018-01-26T14:01:20.441Z,96198.19
2018-01-26T14:03:48.079Z,96198.19
2018-01-26T14:06:15.637Z,96201.31
2018-01-26T14:08:43.223Z,96198.70
2018-01-26T14:11:11.197Z,96185.91
2018-01-26T14:13:38.765Z,96198.62
2018-01-26T14:16:06.318Z,96195.20
2018-01-26T14:18:34.019Z,96195.58
2018-01-26T14:21:01.469Z,96196.13
2018-01-26T14:23:29.017Z,96196.33
2018-01-26T14:25:56.612Z,96210.19
2018-01-26T14:28:24.325Z,96207.04
2018-01-26T14:30:51.854Z,96209.64
2018-01-26T14:33:19.407Z,96211.80
2018-01-26T14:35:46.945Z,96214.05
2018-01-26T14:38:14.524Z,96208.56
2018-01-26T14:40:42.108Z,96211.82
2018-01-26T14:43:09.819Z,96213.17
2018-01-26T14:45:37.373Z,96219.19
2018-01-26T14:48:04.959Z,96218.32
2018-01-26T14:50:32.548Z,96223.93
2018-01-26T14:53:00.104Z,96224.48
2018-01-26T14:55:28.271Z,96232.84
2018-01-26T14:57:55.832Z,96229.91
2018-01-26T15:00:23.385Z,96235.32
2018-01-26T15:02:50.923Z,96236.63
2018-01-26T15:05:18.930Z,96240.69
2018-01-26T15:07:46.510Z,96240.23
2018-01-26T15:10:14.084Z,96240.53
2018-01-26T15:12:41.663Z,96251.64
2018-01-26T15:15:09.567Z,96248.61
2018-01-26T15:17:37.726Z,96255.77
2018-01-26T15:20:05.270Z,96257.86
2018-01-26T15:22:32.871Z,96266.16
2018-01-26T15:25:00.463Z,96276.53
2018-01-26T15:27:28.276Z,96281.31
2018-01-26T15:29:56.188Z,96286.17
2018-01-26T15:32:23.767Z,96287.20
2018-01-26T15:34:53.155Z,96287.84
2018-01-26T15:37:23.302Z,96291.78
2018-01-26T15:39:50.916Z,96291.42
2018-01-26T15:42:18.454Z,96291.25
2018-01-26T15:44:46.040Z,96290.38
2018-01-26T15:47:13.793Z,96300.63
2018-01-26T15:49:42.144Z,96296.59
2018-01-26T15:52:09.728Z,96293.62
2018-01-26T15:54:37.304Z,96300.41
2018-01-26T15:57:04.922Z,96301.86
2018-01-26T15:59:32.472Z,96310.73
2018-01-26T16:02:00.071Z,96314.11
2018-01-26T16:04:27.672Z,96319.77
2018-01-26T16:06:55.222Z,96317.87
2018-01-26T16:09:22.811Z,96316.62
2018-01-26T16:11:50.365Z,96319.14
2018-01-26T16:14:17.911Z,96326.09
2018-01-26T16:16:45.638Z,96330.62
2018-01-26T16:19:13.214Z,96320.89
2018-01-26T16:21:40.759Z,96322.84
2018-01-26T16:24:08.588Z,96320.92
2018-01-26T16:26:36.140Z,96324.90
2018-01-26T16:29:03.726Z,96327.21
2018-01-26T16:31:31.436Z,96334.41
2018-01-26T16:33:59.017Z,96331.59
2018-01-26T16:36:26.564Z,96330.94
2018-01-26T16:38:54.125Z,96336.89
2018-01-26T16:41:22.092Z,96335.10
2018-01-26T16:43:49.651Z,96339.20
2018-01-26T16:46:17.261Z,96345.14
2018-01-26T16:48:44.804Z,96341.14
2018-01-26T16:51:12.613Z,96347.41
2018-01-26T16:53:40.220Z,96351.44
2018-01-26T16:56:07.779Z,96361.91
2018-01-26T16:58:35.344Z,96362.62
2018-01-26T17:01:02.938Z,96370.85
2018-01-26T17:03:30.598Z,96373.37
2018-01-26T17:05:58.132Z,96376.50
2018-01-26T17:08:25.695Z,96387.11
2018-01-26T17:10:53.247Z,96388.42
2018-01-26T17:13:20.916Z,96398.83
2018-01-26T17:15:48.493Z,96406.92
2018-01-26T17:18:16.055Z,96409.91
2018-01-26T17:20:43.607Z,96409.36
2018-01-26T17:23:11.582Z,96411.88
2018-01-26T17:25:39.336Z,96412.35
2018-01-26T17:28:07.037Z,96416.34
2018-01-26T17:30:34.671Z,96417.02
2018-01-26T17:33:02.233Z,96416.24
2018-01-26T17:35:30.020Z,96423.58
2018-01-26T17:37:57.664Z,96431.25
2018-01-26T17:40:25.242Z,96433.09
2018-01-26T17:42:52.799Z,96424.11
2018-01-26T17:45:20.414Z,96433.14
2018-01-26T17:47:48.019Z,96437.56
2018-01-26T17:50:15.568Z,96439.06
2018-01-26T17:52:43.167Z,96442.95
2018-01-26T17:55:10.816Z,96444.57
2018-01-26T17:57:38.954Z,96439.38
2018-01-26T18:00:06.725Z,96432.40
2018-01-26T18:02:34.542Z,96439.88
2018-01-26T18:05:02.112Z,96441.99
2018-01-26T18:07:29.866Z,96456.63
2018-01-26T18:09:57.476Z,96457.73
2018-01-26T18:12:26.603Z,96462.67
2018-01-26T18:14:54.575Z,96470.91
2018-01-26T18:17:22.382Z,96477.84
2018-01-26T18:19:50.058Z,96481.86
2018-01-26T18:22:17.620Z,96483.85
2018-01-26T18:24:45.926Z,96482.91
2018-01-26T18:27:13.493Z,96489.14
2018-01-26T18:29:41.201Z,96493.30
2018-01-26T18:32:08.768Z,96490.02
2018-01-26T18:34:36.356Z,96500.64
2018-01-26T18:37:03.956Z,96506.41
2018-01-26T18:39:32.098Z,96512.08
2018-01-26T18:41:59.701Z,96514.23
2018-01-26T18:44:27.340Z,96514.34
2018-01-26T18:46:54.938Z,96518.17
2018-01-26T18:49:22.735Z,96523.31
2018-01-26T18:51:50.412Z,96519.33
2018-01-26T18:54:18.165Z,96525.41
2018-01-26T18:56:45.812Z,96533.11
2018-01-26T18:59:13.529Z,96528.48
2018-01-26T19:01:42.020Z,96532.69
2018-01-26T19:04:09.603Z,96541.14
2018-01-26T19:06:37.179Z,96544.92
2018-01-26T19:09:05.136Z,96542.46
2018-01-26T19:11:32.903Z,96546.71
2018-01-26T19:14:01.195Z,96544.30
2018-01-26T19:16:29.071Z,96542.28
2018-01-26T19:18:57.122Z,96540.23
2018-01-26T19:21:24.998Z,96554.84
2018-01-26T19:23:52.936Z,96555.89
2018-01-26T19:26:20.545Z,96555.67
2018-01-26T19:28:48.132Z,96554.42
2018-01-26T19:31:15.691Z,96554.16
2018-01-26T19:33:43.986Z,96559.27
2018-01-26T19:36:11.612Z,96561.39
2018-01-26T19:38:39.185Z,96567.41
2018-01-26T19:41:06.796Z,96576.00
2018-01-26T19:43:34.390Z,96569.92
2018-01-26T19:46:01.969Z,96571.78
2018-01-26T19:48:29.553Z,96573.38
2018-01-26T19:50:57.111Z,96573.80
2018-01-26T19:53:24.685Z,96578.08
2018-01-26T19:55:52.234Z,96587.36
2018-01-26T19:58:19.824Z,96593.36
2018-01-26T20:00:47.390Z,96590.56
2018-01-26T20:03:26.574Z,96593.95
2018-01-26T20:05:59.808Z,96599.44
2018-01-26T20:08:33.065Z,96601.50
2018-01-26T20:11:00.920Z,96598.52
2018-01-26T20:13:28.774Z,96598.77
2018-01-26T20:16:00.879Z,96603.10
2018-01-26T20:18:28.455Z,96606.19
2018-01-26T20:20:55.981Z,96605.11
2018-01-26T20:23:23.721Z,96607.03
2018-01-26T20:25:51.313Z,96601.80
2018-01-26T20:28:18.901Z,96606.92
2018-01-26T20:30:46.489Z,96615.25
2018-01-26T20:33:14.358Z,96611.50
2018-01-26T20:35:41.978Z,96605.95
2018-01-26T20:38:10.458Z,96604.11
2018-01-26T20:40:38.026Z,96609.22
2018-01-26T20:43:05.686Z,96608.32
2018-01-26T20:45:33.645Z,96611.67
2018-01-26T20:48:01.242Z,96618.98
2018-01-26T20:50:29.624Z,96616.98
2018-01-26T20:52:57.254Z,96617.41
2018-01-26T20:55:24.961Z,96614.39
2018-01-26T20:57:52.545Z,96613.97
2018-01-26T21:00:20.253Z,96615.98
2018-01-26T21:02:47.886Z,96614.13
2018-01-26T21:05:15.790Z,96618.95
2018-01-26T21:07:43.348Z,96623.84
2018-01-26T21:10:10.966Z,96627.14
2018-01-26T21:12:38.577Z,96631.56
2018-01-26T21:15:06.557Z,96636.24
2018-01-26T21:17:34.185Z,96647.58
2018-01-26T21:20:01.795Z,96646.58
2018-01-26T21:22:29.840Z,96649.42
2018-01-26T21:24:57.447Z,96649.00
2018-01-26T21:27:25.099Z,96652.57
2018-01-26T21:29:52.691Z,96660.34
2018-01-26T21:32:20.966Z,96657.55
2018-01-26T21:34:48.652Z,96655.09
2018-01-26T21:37:16.248Z,96650.41
2018-01-26T21:39:43.819Z,96655.23
2018-01-26T21:42:11.522Z,96663.53
2018-01-26T21:44:39.087Z,96655.97
2018-01-26T21:47:07.217Z,96659.91
2018-01-26T21:49:35.565Z,96666.66
2018-01-26T21:52:03.137Z,96664.44
2018-01-26T21:54:30.737Z,96671.04
2018-01-26T21:56:58.479Z,96672.05
2018-01-26T21:59:26.045Z,96676.41
2018-01-26T22:01:53.622Z,96680.09
2018-01-26T22:04:21.285Z,96676.16
2018-01-26T22:06:54.427Z,96681.18
2018-01-26T22:09:22.027Z,96675.73
2018-01-26T22:11:49.617Z,96678.51
2018-01-26T22:14:17.183Z,96682.43
2018-01-26T22:16:44.780Z,96686.80
2018-01-26T22:19:12.677Z,96695.45
2018-01-26T22:21:40.229Z,96698.58
2018-01-26T22:24:07.960Z,96692.80
2018-01-26T22:26:35.542Z,96701.54
2018-01-26T22:29:03.126Z,96709.13
2018-01-26T22:31:30.722Z,96713.56
2018-01-26T22:33:58.338Z,96718.63
2018-01-26T22:36:25.901Z,96711.05
2018-01-26T22:38:53.522Z,96731.11
2018-01-26T22:41:22.219Z,96730.95
2018-01-26T22:43:49.987Z,96735.69
2018-01-26T22:46:17.599Z,96735.15
2018-01-26T22:48:45.189Z,96736.51
2018-01-26T22:51:12.760Z,96735.62
2018-01-26T22:53:40.350Z,96745.33
2018-01-26T22:56:08.020Z,96740.77
2018-01-26T22:58:35.619Z,96746.68
2018-01-26T23:01:03.225Z,96744.30
2018-01-26T23:03:30.825Z,96743.50
2018-01-26T23:05:58.410Z,96756.27
2018-01-26T23:08:29.568Z,96756.70
2018-01-26T23:14:39.004Z,96761.58
2018-01-26T23:17:07.626Z,96762.05
2018-01-26T23:19:35.445Z,96761.64
2018-01-26T23:22:03.096Z,96762.27
2018-01-26T23:24:31.969Z,96756.42
2018-01-26T23:26:59.526Z,96755.95
2018-01-26T23:29:27.086Z,96756.53
2018-01-26T23:31:57.708Z,96759.06
2018-01-26T23:34:25.294Z,96761.59
2018-01-26T23:36:52.896Z,96761.64
2018-01-26T23:39:20.609Z,96763.16
2018-01-26T23:41:48.213Z,96764.89
2018-01-26T23:44:17.743Z,96761.12
2018-01-26T23:46:45.474Z,96762.05
2018-01-26T23:49:14.033Z,96770.63
2018-01-26T23:51:41.695Z,96773.93
2018-01-26T23:54:12.353Z,96773.09
2018-01-26T23:56:42.646Z,96777.62
2018-01-26T23:59:10.250Z,96785.29
